Time;durP1;ratioP1;P1;durP2;ratioP2;P2;SDS_P1;SDS_P2;PMS_P1;PMS_P2;Temp;Humidity;BMP_temperature;BMP_pressure;BME280_temperature;BME280_humidity;BME280_pressure;Samples;Min_cycle;Max_cycle;Signal;HPM_P1;HPM_P2
2021/08/13 05:03:30;;;;;;;13.98;10.05;;;;;;;15.02;70.94;100623.75;4986671;28;105949;-65
2021/08/13 05:05:55;;;;;;;17.60;10.13;;;;;;;15.06;71.13;100625.88;4987415;28;105924;-67
2021/08/13 05:08:21;;;;;;;12.13;8.82;;;;;;;15.16;71.60;100630.09;4983905;28;106204;-64
2021/08/13 05:10:46;;;;;;;13.50;10.13;;;;;;;15.24;71.42;100635.38;4985347;28;106053;-64
2021/08/13 05:13:12;;;;;;;13.85;9.68;;;;;;;15.32;71.64;100635.25;4984224;28;106509;-64
2021/08/13 05:15:37;;;;;;;20.50;11.32;;;;;;;15.45;71.74;100644.44;4985952;28;105914;-64
2021/08/13 05:18:04;;;;;;;16.67;11.02;;;;;;;15.54;71.82;100638.75;4984739;28;106358;-64
2021/08/13 05:20:29;;;;;;;15.73;11.75;;;;;;;15.68;71.71;100633.50;4984307;28;105977;-69
2021/08/13 05:22:54;;;;;;;19.48;12.27;;;;;;;15.81;71.76;100624.75;4984499;28;105933;-66
2021/08/13 05:25:20;;;;;;;19.88;12.43;;;;;;;15.97;71.47;100629.84;4983257;28;106046;-63
2021/08/13 05:27:46;;;;;;;19.15;11.77;;;;;;;16.05;71.53;100626.19;4982411;28;106363;-62
2021/08/13 05:30:13;;;;;;;19.20;13.18;;;;;;;16.21;71.67;100638.47;4982925;28;105964;-64
2021/08/13 05:32:40;;;;;;;18.88;12.55;;;;;;;16.36;71.36;100627.63;4982000;28;106065;-65
2021/08/13 05:35:06;;;;;;;26.63;12.95;;;;;;;16.49;71.17;100633.09;4966740;28;105972;-63
2021/08/13 05:37:32;;;;;;;25.88;12.65;;;;;;;16.64;71.03;100641.03;4975759;28;106409;-63
2021/08/13 05:39:57;;;;;;;26.02;12.35;;;;;;;16.80;70.95;100636.31;4983885;28;106381;-63
2021/08/13 05:42:22;;;;;;;22.65;13.32;;;;;;;16.97;70.65;100636.84;4984291;28;106442;-64
2021/08/13 05:44:48;;;;;;;22.13;13.10;;;;;;;17.13;70.33;100633.78;4984579;28;106117;-64
2021/08/13 05:47:13;;;;;;;19.58;12.60;;;;;;;17.27;69.98;100633.84;4984070;28;106202;-66
2021/08/13 05:49:38;;;;;;;17.85;12.50;;;;;;;17.37;69.93;100628.88;4983472;28;109688;-63
2021/08/13 05:52:04;;;;;;;16.15;10.57;;;;;;;17.50;69.79;100634.28;4982845;28;106038;-65
2021/08/13 05:54:31;;;;;;;16.75;9.93;;;;;;;17.67;69.59;100633.88;4980334;28;106026;-65
2021/08/13 05:56:57;;;;;;;17.15;9.93;;;;;;;17.88;69.46;100632.88;4982209;28;106162;-65
2021/08/13 05:59:22;;;;;;;14.38;8.52;;;;;;;18.05;69.29;100634.13;4982309;28;106228;-71
2021/08/13 06:01:47;;;;;;;14.35;9.00;;;;;;;18.26;68.95;100640.31;4982241;28;106427;-65
2021/08/13 06:04:13;;;;;;;12.40;10.02;;;;;;;18.42;68.44;100644.44;4983867;28;105970;-65
2021/08/13 06:06:42;;;;;;;11.93;9.55;;;;;;;18.59;68.25;100634.03;4982923;28;106303;-71
2021/08/13 06:09:07;;;;;;;15.65;9.48;;;;;;;18.75;67.61;100638.09;4984015;28;106625;-64
2021/08/13 06:11:33;;;;;;;18.10;9.43;;;;;;;18.84;67.34;100636.81;4984509;28;106632;-66
2021/08/13 06:13:58;;;;;;;21.15;9.00;;;;;;;19.05;67.29;100640.28;4976374;28;106311;-68
2021/08/13 06:16:23;;;;;;;15.32;9.23;;;;;;;19.27;67.22;100636.25;4970628;28;106172;-64
2021/08/13 06:18:49;;;;;;;11.82;8.55;;;;;;;19.43;66.37;100636.75;4970228;28;106074;-65
2021/08/13 06:21:14;;;;;;;14.02;7.85;;;;;;;19.61;65.92;100647.66;4970001;28;106094;-68
2021/08/13 06:23:40;;;;;;;12.90;8.65;;;;;;;19.80;65.97;100642.34;4971465;28;106107;-67
2021/08/13 06:26:05;;;;;;;11.00;7.35;;;;;;;19.93;64.92;100639.53;4962080;28;106017;-66
2021/08/13 06:28:30;;;;;;;11.93;7.45;;;;;;;19.96;64.18;100649.06;4951101;28;106518;-74
2021/08/13 06:30:56;;;;;;;12.85;7.28;;;;;;;20.01;63.56;100640.28;4951117;28;106079;-67
2021/08/13 06:33:22;;;;;;;13.77;7.60;;;;;;;20.12;63.88;100639.56;4952209;28;106036;-75
2021/08/13 06:35:47;;;;;;;10.93;7.20;;;;;;;20.25;63.69;100642.13;4951331;28;106289;-69
2021/08/13 06:38:13;;;;;;;10.48;6.95;;;;;;;20.29;62.74;100639.81;4968736;28;106148;-72
2021/08/13 06:40:38;;;;;;;8.98;7.00;;;;;;;20.34;62.86;100649.94;4970647;28;105792;-70
2021/08/13 06:43:03;;;;;;;11.13;7.53;;;;;;;20.54;62.91;100647.84;4970577;28;105946;-66
2021/08/13 06:45:29;;;;;;;11.15;6.68;;;;;;;20.78;62.86;100645.34;4970281;28;106209;-73
2021/08/13 06:47:54;;;;;;;9.65;6.63;;;;;;;21.00;62.29;100653.00;4970534;28;107217;-70
2021/08/13 06:50:20;;;;;;;10.40;6.88;;;;;;;21.20;61.24;100650.84;4970382;28;105913;-74
2021/08/13 06:52:45;;;;;;;10.13;6.40;;;;;;;21.43;61.41;100652.81;4971453;28;106279;-74
2021/08/13 06:55:11;;;;;;;12.98;7.35;;;;;;;21.71;61.00;100658.69;4970731;28;106266;-74
2021/08/13 06:57:37;;;;;;;9.50;6.35;;;;;;;21.96;60.29;100656.56;4969836;28;106369;-73
2021/08/13 07:00:05;;;;;;;11.70;5.72;;;;;;;22.08;59.43;100653.88;4970345;28;106448;-71
2021/08/13 07:02:30;;;;;;;11.88;6.13;;;;;;;22.13;58.71;100658.63;4970325;28;106055;-69
2021/08/13 07:04:55;;;;;;;12.90;6.25;;;;;;;22.38;58.93;100652.97;4970671;28;105954;-67
2021/08/13 07:07:21;;;;;;;10.43;6.65;;;;;;;22.65;58.44;100657.88;4969771;28;106104;-71
2021/08/13 07:09:47;;;;;;;12.27;6.00;;;;;;;22.78;57.54;100656.78;4970099;28;106616;-68
2021/08/13 07:12:14;;;;;;;7.55;6.10;;;;;;;22.85;56.75;100662.91;4970566;28;105903;-70
2021/08/13 07:14:39;;;;;;;10.90;6.15;;;;;;;22.87;56.99;100660.78;4969470;28;106188;-69
2021/08/13 07:17:04;;;;;;;11.27;6.35;;;;;;;23.09;56.78;100651.97;4969374;28;105910;-69
2021/08/13 07:19:30;;;;;;;10.90;6.25;;;;;;;23.39;56.24;100645.47;4969556;28;106061;-72
2021/08/13 07:21:55;;;;;;;12.50;6.43;;;;;;;23.62;55.60;100653.50;4970404;28;106407;-70
2021/08/13 07:24:22;;;;;;;7.22;4.68;;;;;;;23.79;55.11;100655.41;4969713;28;106422;-69
2021/08/13 07:26:47;;;;;;;8.25;4.82;;;;;;;24.05;54.56;100653.13;4969026;28;106283;-72
2021/08/13 07:29:13;;;;;;;8.77;5.25;;;;;;;24.14;53.78;100646.19;4969369;28;106077;-71
2021/08/13 07:31:38;;;;;;;9.70;5.57;;;;;;;24.22;53.59;100651.22;4970398;28;105899;-71
2021/08/13 07:34:04;;;;;;;7.82;5.45;;;;;;;24.47;53.68;100633.56;4969573;28;106182;-68
2021/08/13 07:36:29;;;;;;;7.93;5.00;;;;;;;24.76;52.76;100641.59;4968899;28;115018;-67
2021/08/13 07:38:54;;;;;;;7.72;4.65;;;;;;;25.05;52.48;100633.19;4969146;28;106002;-71
2021/08/13 07:41:19;;;;;;;8.57;5.18;;;;;;;25.28;51.13;100637.50;4969934;28;106094;-69
2021/08/13 07:43:45;;;;;;;8.63;4.93;;;;;;;25.36;50.58;100641.69;4969544;28;106234;-67
2021/08/13 07:46:10;;;;;;;8.15;4.95;;;;;;;25.42;50.24;100640.66;4969255;28;106390;-67
2021/08/13 07:48:37;;;;;;;7.80;4.72;;;;;;;25.51;50.06;100639.94;4969083;28;106402;-68
2021/08/13 07:51:02;;;;;;;8.15;5.00;;;;;;;25.61;49.51;100646.56;4969646;28;106282;-68
2021/08/13 07:53:28;;;;;;;10.90;5.00;;;;;;;25.75;49.70;100642.34;4969338;28;106181;-71
2021/08/13 07:55:53;;;;;;;8.52;5.68;;;;;;;25.94;48.79;100644.63;4968968;28;105740;-68
2021/08/13 07:58:19;;;;;;;7.93;4.82;;;;;;;26.02;48.65;100647.72;4969187;28;106077;-70
2021/08/13 08:00:44;;;;;;;5.68;4.55;;;;;;;26.25;48.54;100634.78;4969770;28;106165;-69
2021/08/13 08:03:10;;;;;;;8.23;4.53;;;;;;;26.46;47.65;100629.41;4969382;28;106113;-68
2021/08/13 08:05:35;;;;;;;8.43;4.32;;;;;;;26.74;47.56;100621.94;4969115;28;106076;-69
2021/08/13 08:08:00;;;;;;;7.93;4.18;;;;;;;26.91;46.85;100624.44;4968958;28;106050;-66
2021/08/13 08:10:26;;;;;;;8.45;4.22;;;;;;;27.15;46.13;100624.75;4969649;28;105840;-67
2021/08/13 08:12:51;;;;;;;8.40;4.40;;;;;;;27.39;45.28;100618.78;4969444;28;105926;-65
2021/08/13 08:15:17;;;;;;;9.55;4.22;;;;;;;27.49;44.99;100630.56;4968816;28;106084;-71
2021/08/13 08:17:42;;;;;;;10.70;4.57;;;;;;;27.68;44.44;100622.63;4969239;28;106364;-68
2021/08/13 08:20:09;;;;;;;7.20;4.03;;;;;;;27.98;43.77;100620.94;4969792;28;105998;-73
2021/08/13 08:22:34;;;;;;;6.03;4.00;;;;;;;28.23;42.96;100613.81;4969054;28;106253;-73
2021/08/13 08:25:00;;;;;;;8.43;4.47;;;;;;;28.15;42.43;100625.34;4968911;28;106007;-68
2021/08/13 08:27:25;;;;;;;8.23;4.50;;;;;;;28.33;42.60;100632.94;4968916;28;105954;-73
2021/08/13 08:29:51;;;;;;;7.28;3.75;;;;;;;28.47;41.94;100622.22;4970511;28;105850;-76
2021/08/13 08:32:16;;;;;;;5.13;4.00;;;;;;;28.68;41.95;100620.22;4969490;28;106148;-70
2021/08/13 08:34:41;;;;;;;7.70;4.45;;;;;;;28.84;41.09;100631.94;4969000;28;105946;-71
2021/08/13 08:37:11;;;;;;;6.32;3.65;;;;;;;29.01;40.63;100631.56;4968341;28;106166;-74
2021/08/13 08:39:38;;;;;;;6.18;3.78;;;;;;;29.20;39.91;100637.19;4969687;28;106431;-71
2021/08/13 08:42:10;;;;;;;6.60;3.58;;;;;;;29.45;39.49;100631.84;4968886;28;105988;-71
2021/08/13 08:44:36;;;;;;;6.63;3.60;;;;;;;29.84;38.86;100631.78;4968815;28;105852;-72
2021/08/13 08:47:01;;;;;;;5.95;3.65;;;;;;;29.98;38.06;100644.88;4968965;28;105780;-69
2021/08/13 08:49:30;;;;;;;5.47;3.40;;;;;;;30.12;37.59;100636.75;4969621;28;105919;-69
2021/08/13 08:51:56;;;;;;;5.10;3.50;;;;;;;30.28;36.83;100640.97;4968562;28;106205;-69
2021/08/13 08:54:24;;;;;;;8.82;3.50;;;;;;;30.46;36.77;100635.88;4968305;28;106294;-65
2021/08/13 08:56:50;;;;;;;6.20;3.53;;;;;;;30.78;36.30;100648.09;4968518;28;106157;-70
2021/08/13 08:59:17;;;;;;;5.07;3.58;;;;;;;31.27;35.02;100640.56;4969322;28;106359;-74
2021/08/13 09:01:43;;;;;;;10.68;3.38;;;;;;;31.62;34.45;100632.84;4968862;28;106274;-70
2021/08/13 09:04:09;;;;;;;7.28;3.70;;;;;;;32.45;33.14;100643.19;4967045;28;107486;-69
2021/08/13 09:06:34;;;;;;;6.53;3.30;;;;;;;34.32;30.82;100636.53;4967384;28;106024;-69
2021/08/13 09:08:59;;;;;;;8.13;3.40;;;;;;;37.28;27.76;100631.72;4968531;28;106038;-69
2021/08/13 09:11:25;;;;;;;6.82;3.40;;;;;;;39.85;23.13;100630.19;4968384;28;106265;-66
2021/08/13 09:14:07;;;;;;;4.82;3.25;;;;;;;41.44;20.97;100629.00;4968017;28;105979;-74
2021/08/13 09:16:33;;;;;;;4.00;2.72;;;;;;;42.59;18.67;100624.47;4967503;28;106007;-70
2021/08/13 09:19:01;;;;;;;3.97;2.70;;;;;;;42.84;18.12;100626.81;4968649;28;105896;-69
2021/08/13 09:21:27;;;;;;;5.60;2.70;;;;;;;42.57;18.31;100632.47;4967934;28;106005;-71
2021/08/13 09:23:54;;;;;;;6.22;3.00;;;;;;;42.30;17.95;100634.47;4967822;28;106318;-73
2021/08/13 09:26:24;;;;;;;5.65;3.28;;;;;;;42.04;17.91;100636.84;4967987;28;106043;-69
2021/08/13 09:28:55;;;;;;;5.07;3.15;;;;;;;41.60;18.21;100626.09;4968186;28;106216;-64
2021/08/13 09:31:23;;;;;;;7.38;3.15;;;;;;;41.26;18.42;100629.44;4967585;28;106245;-66
2021/08/13 09:33:52;;;;;;;5.32;2.92;;;;;;;40.84;19.09;100630.16;4967351;28;105929;-69
2021/08/13 09:36:19;;;;;;;5.03;3.30;;;;;;;40.64;19.13;100632.13;4966975;28;106293;-73
2021/08/13 09:38:47;;;;;;;7.45;3.53;;;;;;;39.76;19.77;100633.97;4967811;28;105896;-64
2021/08/13 09:41:17;;;;;;;8.00;3.38;;;;;;;38.94;20.33;100632.47;4967205;28;106159;-68
2021/08/13 09:43:59;;;;;;;6.63;3.17;;;;;;;38.82;21.11;100638.06;4967285;28;105883;-65
2021/08/13 09:46:27;;;;;;;4.22;2.90;;;;;;;38.88;20.74;100634.69;4966780;28;106290;-67
2021/08/13 09:48:52;;;;;;;5.70;2.55;;;;;;;38.65;20.90;100626.00;4969341;28;106133;-64
2021/08/13 09:51:27;;;;;;;5.22;2.97;;;;;;;38.67;20.91;100626.50;4970695;28;106187;-63
2021/08/13 09:54:00;;;;;;;6.20;3.30;;;;;;;38.42;21.21;100620.94;4970896;28;105871;-64
2021/08/13 09:56:30;;;;;;;5.72;2.58;;;;;;;38.49;21.25;100616.78;4970671;28;105993;-64
2021/08/13 09:59:08;;;;;;;10.30;3.95;;;;;;;38.67;20.88;100620.94;4971612;28;106042;-65
2021/08/13 10:01:47;;;;;;;6.03;3.40;;;;;;;38.72;21.17;100617.91;4970500;28;106293;-67
2021/08/13 10:04:15;;;;;;;8.35;3.20;;;;;;;38.77;21.22;100616.88;4971033;28;105950;-69
2021/08/13 10:06:41;;;;;;;5.50;3.20;;;;;;;38.48;20.98;100615.16;4969590;28;105819;-70
2021/08/13 10:09:22;;;;;;;9.23;3.33;;;;;;;37.88;21.74;100604.47;4971293;28;105684;-66
2021/08/13 10:12:00;;;;;;;8.65;3.35;;;;;;;37.41;22.36;100608.41;4970457;28;106205;-66
2021/08/13 10:14:34;;;;;;;5.28;3.38;;;;;;;36.89;23.02;100606.91;4970604;28;106385;-65
2021/08/13 10:17:12;;;;;;;5.28;3.47;;;;;;;35.98;23.21;100601.69;4970190;28;106185;-73
2021/08/13 10:19:39;;;;;;;4.95;2.97;;;;;;;35.58;24.18;100606.38;4971276;28;106018;-66
2021/08/13 10:22:05;;;;;;;6.30;3.63;;;;;;;35.69;24.18;100608.78;4970077;28;106258;-65
2021/08/13 10:24:31;;;;;;;11.75;3.60;;;;;;;35.77;24.09;100604.38;4970535;28;106015;-64
2021/08/13 10:26:56;;;;;;;9.73;3.35;;;;;;;35.94;24.07;100600.72;4970267;28;105971;-64
2021/08/13 10:29:23;;;;;;;5.90;3.60;;;;;;;35.81;24.07;100599.78;4970805;28;105856;-65
2021/08/13 10:31:48;;;;;;;5.75;3.25;;;;;;;35.46;24.27;100603.47;4970339;28;105803;-63
2021/08/13 10:34:14;;;;;;;5.18;3.40;;;;;;;35.50;24.44;100595.31;4970161;28;107738;-68
2021/08/13 10:36:42;;;;;;;9.55;3.58;;;;;;;35.83;24.43;100583.66;4970102;28;105938;-67
2021/08/13 10:39:10;;;;;;;5.30;3.10;;;;;;;35.96;24.27;100590.94;4971002;28;106344;-65
2021/08/13 10:41:40;;;;;;;5.47;3.10;;;;;;;35.27;24.54;100589.13;4970430;28;106301;-72
2021/08/13 10:44:13;;;;;;;7.85;3.50;;;;;;;34.67;25.48;100586.03;4970155;28;106316;-70
2021/08/13 10:46:41;;;;;;;5.80;3.60;;;;;;;34.82;25.62;100587.53;4970390;28;105948;-71
2021/08/13 10:49:10;;;;;;;4.75;3.40;;;;;;;34.98;25.42;100590.63;4967234;28;106263;-67
2021/08/13 10:51:35;;;;;;;7.25;3.65;;;;;;;35.41;25.11;100579.53;4970271;28;106213;-66
2021/08/13 10:54:14;;;;;;;9.38;3.40;;;;;;;35.33;24.82;100596.97;4969841;28;106025;-69
2021/08/13 10:56:41;;;;;;;6.17;3.73;;;;;;;34.81;25.12;100591.41;4969553;28;106333;-68
2021/08/13 10:59:08;;;;;;;9.45;3.50;;;;;;;34.49;25.82;100590.72;4970379;28;106046;-68
2021/08/13 11:01:33;;;;;;;6.68;3.70;;;;;;;34.32;25.51;100581.25;4970141;28;106203;-72
2021/08/13 11:03:58;;;;;;;4.68;3.38;;;;;;;34.31;25.74;100579.63;4969994;28;105901;-66
2021/08/13 11:06:45;;;;;;;6.30;3.33;;;;;;;34.36;26.02;100567.59;4969574;28;106008;-65
2021/08/13 11:09:12;;;;;;;9.55;3.78;;;;;;;34.87;25.15;100563.28;4970435;28;106469;-67
2021/08/13 11:11:56;;;;;;;7.40;3.65;;;;;;;35.25;25.10;100557.06;4969885;28;106161;-72
2021/08/13 11:14:26;;;;;;;7.68;3.30;;;;;;;35.24;24.88;100555.44;4969946;28;107292;-69
2021/08/13 11:16:53;;;;;;;7.47;3.75;;;;;;;35.03;25.10;100555.28;4969205;28;105995;-68
2021/08/13 11:19:21;;;;;;;5.13;3.35;;;;;;;34.97;25.35;100561.34;4970264;28;106062;-67
2021/08/13 11:21:50;;;;;;;5.95;3.10;;;;;;;35.15;25.34;100559.34;4969158;28;106092;-70
2021/08/13 11:24:17;;;;;;;6.82;3.28;;;;;;;35.47;25.16;100543.34;4969254;28;105974;-71
2021/08/13 11:26:51;;;;;;;4.85;3.33;;;;;;;35.92;24.70;100551.16;4969173;28;107218;-69
2021/08/13 11:29:29;;;;;;;7.10;3.58;;;;;;;36.51;24.13;100544.00;4970061;28;106308;-69
2021/08/13 11:31:58;;;;;;;7.38;3.35;;;;;;;36.76;23.54;100545.75;4969487;28;106219;-73
2021/08/13 11:34:53;;;;;;;7.38;3.70;;;;;;;36.18;23.29;100548.25;4969087;28;105884;-71
2021/08/13 11:37:27;;;;;;;5.70;3.42;;;;;;;35.77;23.84;100544.19;4968361;28;106085;-70
2021/08/13 11:39:54;;;;;;;5.85;3.58;;;;;;;35.53;24.05;100550.34;4969709;28;106080;-70
2021/08/13 11:42:21;;;;;;;7.13;3.80;;;;;;;35.26;24.29;100544.03;4968722;28;106268;-71
2021/08/13 11:44:51;;;;;;;9.05;3.80;;;;;;;35.12;24.44;100546.16;4968528;28;109357;-74
2021/08/13 11:47:17;;;;;;;5.15;3.80;;;;;;;35.18;24.80;100536.53;4968418;28;106461;-68
2021/08/13 11:49:44;;;;;;;5.78;4.00;;;;;;;35.39;24.72;100540.28;4969693;28;105860;-70
2021/08/13 11:52:10;;;;;;;6.13;3.50;;;;;;;35.55;24.46;100534.19;4969090;28;106340;-72
2021/08/13 11:54:36;;;;;;;7.00;3.75;;;;;;;35.84;24.20;100532.63;4968824;28;106787;-65
2021/08/13 11:57:22;;;;;;;7.70;3.67;;;;;;;36.21;24.01;100542.06;4969232;28;105875;-64
2021/08/13 11:59:49;;;;;;;6.03;3.55;;;;;;;36.46;23.43;100538.63;4967722;27;106293;-65
2021/08/13 12:02:26;;;;;;;6.45;3.58;;;;;;;36.63;23.48;100535.72;4968935;28;106486;-69
2021/08/13 12:05:09;;;;;;;6.93;3.80;;;;;;;36.92;23.29;100525.72;4969371;28;106002;-64
2021/08/13 12:07:35;;;;;;;4.95;3.47;;;;;;;37.04;22.87;100516.63;4968349;28;106116;-66
2021/08/13 12:10:15;;;;;;;6.18;3.90;;;;;;;37.13;22.60;100513.75;4969558;28;106468;-66
2021/08/13 12:12:41;;;;;;;7.18;3.70;;;;;;;37.32;22.28;100504.91;4966356;28;106343;-64
2021/08/13 12:15:07;;;;;;;5.13;3.67;;;;;;;36.99;22.78;100523.22;4968283;28;105985;-63
2021/08/13 12:17:33;;;;;;;6.13;3.92;;;;;;;36.91;23.03;100515.78;4966616;27;106983;-75
2021/08/13 12:20:03;;;;;;;6.65;3.72;;;;;;;37.21;22.89;100510.88;4969651;28;105997;-72
2021/08/13 12:22:33;;;;;;;7.60;4.18;;;;;;;37.50;22.45;100506.31;4968403;28;106141;-76
2021/08/13 12:25:00;;;;;;;5.38;3.78;;;;;;;37.65;22.25;100507.63;4968536;28;106218;-73
2021/08/13 12:27:30;;;;;;;5.88;3.42;;;;;;;37.75;22.12;100518.25;4968494;28;105982;-65
2021/08/13 12:29:56;;;;;;;6.20;3.88;;;;;;;37.69;22.03;100516.09;4969515;28;106349;-68
2021/08/13 12:32:35;;;;;;;6.38;3.92;;;;;;;37.58;21.56;100521.28;4968897;28;106173;-69
2021/08/13 12:35:00;;;;;;;6.22;3.30;;;;;;;37.59;21.47;100514.53;4968656;28;105955;-65
2021/08/13 12:37:26;;;;;;;7.35;4.15;;;;;;;37.73;21.02;100515.03;4968027;28;106070;-65
2021/08/13 12:39:52;;;;;;;8.82;4.20;;;;;;;37.79;21.41;100506.50;4969162;28;105955;-64
2021/08/13 12:42:18;;;;;;;6.93;3.80;;;;;;;37.81;21.21;100495.81;4967134;28;105881;-64
2021/08/13 12:44:45;;;;;;;8.35;3.78;;;;;;;37.94;21.06;100491.88;4968265;28;106142;-64
2021/08/13 12:47:11;;;;;;;6.15;4.63;;;;;;;38.15;21.50;100496.47;4968125;28;106382;-64
2021/08/13 12:49:40;;;;;;;5.55;3.67;;;;;;;38.07;21.17;100501.84;4968951;28;105984;-64
2021/08/13 12:52:12;;;;;;;10.45;4.45;;;;;;;37.58;21.25;100493.50;4968387;28;106198;-65
2021/08/13 12:54:39;;;;;;;5.65;3.92;;;;;;;37.31;21.46;100493.00;4967865;28;106456;-64
2021/08/13 12:57:11;;;;;;;7.55;4.07;;;;;;;36.85;21.87;100484.63;4967897;28;106093;-66
2021/08/13 12:59:37;;;;;;;9.27;4.18;;;;;;;36.53;22.13;100477.91;4968765;28;105903;-65
2021/08/13 13:02:04;;;;;;;5.80;4.00;;;;;;;36.49;22.39;100479.72;4967475;28;105953;-67
2021/08/13 13:04:37;;;;;;;6.57;4.25;;;;;;;36.29;22.73;100482.13;4967809;28;106359;-64
2021/08/13 13:07:02;;;;;;;9.52;4.07;;;;;;;36.09;22.98;100483.75;4967823;28;106311;-62
2021/08/13 13:09:30;;;;;;;7.32;4.28;;;;;;;35.47;23.64;100494.28;4968897;28;106433;-65
2021/08/13 13:12:15;;;;;;;7.20;4.10;;;;;;;35.04;24.07;100496.03;4968298;28;106272;-64
2021/08/13 13:14:41;;;;;;;7.68;4.32;;;;;;;34.67;24.91;100492.78;4967957;28;106274;-63
2021/08/13 13:17:11;;;;;;;8.02;4.32;;;;;;;34.75;24.83;100489.19;4967934;28;106039;-64
2021/08/13 13:19:38;;;;;;;5.03;3.80;;;;;;;34.92;24.28;100488.38;4968949;28;106272;-64
2021/08/13 13:22:20;;;;;;;10.05;4.10;;;;;;;35.06;23.77;100479.91;4967967;28;106153;-66
2021/08/13 13:25:06;;;;;;;6.63;4.15;;;;;;;35.34;23.77;100487.03;4970442;28;105974;-67
2021/08/13 13:27:54;;;;;;;5.65;4.15;;;;;;;35.67;23.44;100486.41;4970390;28;106478;-67
2021/08/13 13:30:40;;;;;;;7.22;3.72;;;;;;;35.31;23.83;100480.16;4972085;28;106146;-65
2021/08/13 13:33:27;;;;;;;9.70;3.75;;;;;;;35.31;24.00;100480.16;4969268;28;106079;-64
2021/08/13 13:35:59;;;;;;;8.02;4.22;;;;;;;35.59;23.88;100479.75;4968789;28;106303;-64
2021/08/13 13:38:27;;;;;;;6.00;4.15;;;;;;;35.85;23.97;100479.63;4968608;28;106189;-64
2021/08/13 13:40:52;;;;;;;7.32;4.10;;;;;;;35.92;23.85;100476.34;4969209;28;106414;-63
2021/08/13 13:43:17;;;;;;;6.05;3.80;;;;;;;36.08;23.35;100473.78;4968972;28;106821;-65
2021/08/13 13:45:43;;;;;;;8.70;3.85;;;;;;;35.89;23.35;100471.47;4969397;28;106429;-64
2021/08/13 13:48:08;;;;;;;7.93;4.22;;;;;;;35.36;23.63;100459.81;4970457;28;106143;-66
2021/08/13 13:50:34;;;;;;;7.32;4.35;;;;;;;35.15;23.86;100462.47;4971885;28;106106;-66
2021/08/13 13:52:59;;;;;;;6.90;4.40;;;;;;;34.71;24.36;100463.31;4970905;28;106220;-66
2021/08/13 13:55:25;;;;;;;11.07;7.28;;;;;;;34.30;24.29;100461.06;4971023;28;106157;-66
2021/08/13 13:57:52;;;;;;;8.00;5.32;;;;;;;34.26;24.86;100460.88;4970810;28;106230;-64
2021/08/13 14:00:17;;;;;;;5.60;3.85;;;;;;;34.46;24.62;100458.63;4971829;28;106001;-65
2021/08/13 14:02:44;;;;;;;7.38;4.18;;;;;;;34.55;24.34;100451.13;4970236;28;106092;-66
2021/08/13 14:05:12;;;;;;;7.25;4.07;;;;;;;34.51;24.49;100455.69;4970401;28;108668;-66
2021/08/13 14:07:39;;;;;;;6.20;3.95;;;;;;;34.55;24.43;100451.13;4970394;28;106058;-65
2021/08/13 14:10:06;;;;;;;7.75;4.00;;;;;;;34.56;24.63;100450.81;4971930;28;105965;-65
2021/08/13 14:12:32;;;;;;;5.75;4.22;;;;;;;34.51;24.53;100444.63;4969941;28;105999;-65
2021/08/13 14:14:58;;;;;;;8.15;4.07;;;;;;;34.60;24.30;100442.69;4970653;28;106388;-66
2021/08/13 14:17:23;;;;;;;8.43;4.43;;;;;;;34.63;24.82;100435.69;4970383;28;106166;-66
2021/08/13 14:19:49;;;;;;;6.85;4.00;;;;;;;34.55;24.29;100440.06;4971214;28;105881;-66
2021/08/13 14:22:14;;;;;;;8.32;3.75;;;;;;;34.58;24.54;100440.25;4970846;28;106158;-66
2021/08/13 14:24:40;;;;;;;6.80;4.10;;;;;;;34.50;24.46;100435.53;4970490;28;106048;-66
2021/08/13 14:27:05;;;;;;;5.47;4.00;;;;;;;34.29;24.97;100434.53;4970437;28;105867;-70
2021/08/13 14:29:30;;;;;;;6.07;3.60;;;;;;;34.28;24.91;100433.69;4971456;28;106053;-65
2021/08/13 14:31:56;;;;;;;6.40;3.67;;;;;;;34.30;25.06;100433.44;4971136;28;106434;-64
2021/08/13 14:34:21;;;;;;;8.13;4.45;;;;;;;34.36;25.07;100421.84;4970050;28;106203;-66
2021/08/13 14:36:47;;;;;;;6.63;4.57;;;;;;;34.48;24.84;100428.69;4970405;28;105903;-65
